createdAt,value
2019-04-05T00:02:22.410Z,2.80
2019-04-05T00:04:50.680Z,2.73
2019-04-05T00:07:18.931Z,3.17
2019-04-05T00:09:47.207Z,3.93
2019-04-05T00:12:15.459Z,3.07
2019-04-05T00:14:43.733Z,3.60
2019-04-05T00:17:11.994Z,3.60
2019-04-05T00:19:40.330Z,3.60
2019-04-05T00:22:08.578Z,3.37
2019-04-05T00:24:36.858Z,4.00
2019-04-05T00:27:05.167Z,3.80
2019-04-05T00:29:33.442Z,3.50
2019-04-05T00:32:01.747Z,3.67
2019-04-05T00:34:30.017Z,4.10
2019-04-05T00:36:58.262Z,4.07
2019-04-05T00:39:26.553Z,4.00
2019-04-05T00:41:54.816Z,4.53
2019-04-05T00:44:23.095Z,4.70
2019-04-05T00:46:51.341Z,3.43
2019-04-05T00:49:19.616Z,4.60
2019-04-05T00:51:47.894Z,4.30
2019-04-05T00:54:16.168Z,4.10
2019-04-05T00:56:44.417Z,3.80
2019-04-05T00:59:12.805Z,3.47
2019-04-05T01:01:41.061Z,4.40
2019-04-05T01:04:09.404Z,3.50
2019-04-05T01:06:38.655Z,4.00
2019-04-05T01:09:07.840Z,4.27
2019-04-05T01:11:36.090Z,4.55
2019-04-05T01:14:04.362Z,4.80
2019-04-05T01:16:32.627Z,5.20
2019-04-05T01:19:03.871Z,4.87
2019-04-05T01:21:36.803Z,4.23
2019-04-05T01:24:05.040Z,4.83
2019-04-05T01:26:33.307Z,4.53
2019-04-05T01:29:02.577Z,4.20
2019-04-05T01:31:30.846Z,4.75
2019-04-05T01:33:59.098Z,4.30
2019-04-05T01:36:27.365Z,4.10
2019-04-05T01:38:55.619Z,4.37
2019-04-05T01:41:23.936Z,4.37
2019-04-05T01:43:52.211Z,3.77
2019-04-05T01:46:20.483Z,4.00
2019-04-05T01:48:48.721Z,4.00
2019-04-05T01:51:16.989Z,3.90
2019-04-05T01:53:45.307Z,3.83
2019-04-05T01:56:13.583Z,3.70
2019-04-05T01:58:41.825Z,3.20
2019-04-05T02:01:10.101Z,3.70
2019-04-05T02:03:38.349Z,3.80
2019-04-05T02:06:06.616Z,3.90
2019-04-05T02:08:34.882Z,4.10
2019-04-05T02:11:03.176Z,4.63
2019-04-05T02:13:31.430Z,3.80
2019-04-05T02:16:06.327Z,3.80
2019-04-05T02:18:30.359Z,3.80
2019-04-05T02:20:58.637Z,3.87
2019-04-05T02:23:26.885Z,3.80
2019-04-05T02:25:55.161Z,4.27
2019-04-05T02:28:25.487Z,4.20
2019-04-05T02:30:53.413Z,4.10
2019-04-05T02:33:21.668Z,4.03
2019-04-05T02:35:49.941Z,4.60
2019-04-05T02:38:18.197Z,4.33
2019-04-05T02:40:46.464Z,3.97
2019-04-05T02:43:14.712Z,4.63
2019-04-05T02:45:42.961Z,4.37
2019-04-05T02:48:11.235Z,4.63
2019-04-05T02:50:41.289Z,3.83
2019-04-05T02:53:09.575Z,4.33
2019-04-05T02:55:38.955Z,4.30
2019-04-05T02:58:07.251Z,3.20
2019-04-05T03:00:35.514Z,3.33
2019-04-05T03:03:04.182Z,3.60
2019-04-05T03:05:32.413Z,3.70
2019-04-05T03:08:00.706Z,4.23
2019-04-05T03:11:05.616Z,3.87
2019-04-05T03:13:36.059Z,4.27
2019-04-05T03:16:06.843Z,4.63
2019-04-05T03:18:38.756Z,4.45
2019-04-05T03:21:07.780Z,4.77
2019-04-05T03:23:39.279Z,4.97
2019-04-05T03:26:08.935Z,3.70
2019-04-05T03:28:37.987Z,3.93
2019-04-05T03:31:06.267Z,4.40
2019-04-05T03:33:34.586Z,4.70
2019-04-05T03:36:02.890Z,4.90
2019-04-05T03:38:31.373Z,4.93
2019-04-05T03:40:59.643Z,5.27
2019-04-05T03:43:27.904Z,4.73
2019-04-05T03:45:56.168Z,5.40
2019-04-05T03:48:24.446Z,4.93
2019-04-05T03:50:52.707Z,4.50
2019-04-05T03:53:21.065Z,4.83
2019-04-05T03:55:49.478Z,5.17
2019-04-05T03:58:17.763Z,4.70
2019-04-05T04:00:46.091Z,5.30
2019-04-05T04:03:14.388Z,6.03
2019-04-05T04:05:42.644Z,4.67
2019-04-05T04:08:10.932Z,3.77
2019-04-05T04:10:39.186Z,4.87
2019-04-05T04:13:07.554Z,4.60
2019-04-05T04:15:35.805Z,4.17
2019-04-05T04:18:04.074Z,4.17
2019-04-05T04:20:46.838Z,5.67
2019-04-05T04:23:15.122Z,5.63
2019-04-05T04:25:43.461Z,6.97
2019-04-05T04:28:11.758Z,4.87
2019-04-05T04:30:40.074Z,4.57
2019-04-05T04:33:16.709Z,4.27
2019-04-05T04:35:44.953Z,4.20
2019-04-05T04:38:13.236Z,5.10
2019-04-05T04:40:41.786Z,5.33
2019-04-05T04:43:10.608Z,5.40
2019-04-05T04:45:38.864Z,6.08
2019-04-05T04:48:07.160Z,6.10
2019-04-05T04:50:35.406Z,5.73
2019-04-05T04:53:03.680Z,5.73
2019-04-05T04:55:31.942Z,5.00
2019-04-05T04:58:00.211Z,5.70
2019-04-05T05:00:28.461Z,6.90
2019-04-05T05:02:56.736Z,5.97
2019-04-05T05:05:25.230Z,7.40
2019-04-05T05:07:53.578Z,7.07
2019-04-05T05:10:21.834Z,5.40
2019-04-05T05:12:50.142Z,4.67
2019-04-05T05:15:18.426Z,6.33
2019-04-05T05:17:58.089Z,5.27
2019-04-05T05:20:16.661Z,4.70
2019-04-05T05:22:44.914Z,4.47
2019-04-05T05:25:15.375Z,5.00
2019-04-05T05:27:43.585Z,5.00
2019-04-05T05:30:12.118Z,5.40
2019-04-05T05:32:40.433Z,4.73
2019-04-05T05:35:08.702Z,4.73
2019-04-05T05:37:36.956Z,5.40
2019-04-05T05:40:06.851Z,5.60
2019-04-05T05:42:35.099Z,5.23
2019-04-05T05:45:04.603Z,5.57
2019-04-05T05:47:32.844Z,5.37
2019-04-05T05:50:01.143Z,5.17
2019-04-05T05:52:29.478Z,4.53
2019-04-05T05:54:57.817Z,4.57
2019-04-05T05:57:26.425Z,4.70
2019-04-05T05:59:54.842Z,4.33
2019-04-05T06:02:23.104Z,4.70
2019-04-05T06:04:51.381Z,5.00
2019-04-05T06:07:20.198Z,4.23
2019-04-05T06:09:48.500Z,4.12
2019-04-05T06:12:16.751Z,5.00
2019-04-05T06:14:45.177Z,4.50
2019-04-05T06:17:14.256Z,4.78
2019-04-05T06:19:42.585Z,4.57
2019-04-05T06:22:10.851Z,4.97
2019-04-05T06:24:39.149Z,4.87
2019-04-05T06:27:07.503Z,4.87
2019-04-05T06:29:35.792Z,5.57
2019-04-05T06:32:04.148Z,6.10
2019-04-05T06:34:32.455Z,5.57
2019-04-05T06:37:00.716Z,5.73
2019-04-05T06:39:28.974Z,6.17
2019-04-05T06:41:57.350Z,6.37
2019-04-05T06:44:27.960Z,5.93
2019-04-05T06:46:57.275Z,7.07
2019-04-05T06:49:25.606Z,5.73
2019-04-05T06:51:53.882Z,7.23
2019-04-05T06:54:22.173Z,6.23
2019-04-05T06:56:50.462Z,6.40
2019-04-05T06:59:19.430Z,5.87
2019-04-05T07:01:47.955Z,5.80
2019-04-05T07:04:16.224Z,5.05
2019-04-05T07:06:44.518Z,10.97
2019-04-05T07:09:12.972Z,5.53
2019-04-05T07:11:41.290Z,6.00
2019-04-05T07:14:09.549Z,6.33
2019-04-05T07:16:37.817Z,6.20
2019-04-05T07:19:06.085Z,6.20
2019-04-05T07:21:34.479Z,6.77
2019-04-05T07:24:02.799Z,8.20
2019-04-05T07:26:31.089Z,7.70
2019-04-05T07:28:59.403Z,7.10
2019-04-05T07:31:27.745Z,7.23
2019-04-05T07:33:56.341Z,7.80
2019-04-05T07:36:24.831Z,7.27
2019-04-05T07:38:53.163Z,7.80
2019-04-05T07:41:21.471Z,6.27
2019-04-05T07:43:49.987Z,7.83
2019-04-05T07:46:18.341Z,7.80
2019-04-05T07:48:46.639Z,7.03
2019-04-05T07:51:14.931Z,8.50
2019-04-05T07:53:44.699Z,8.03
2019-04-05T07:56:12.974Z,7.53
2019-04-05T07:58:41.231Z,7.67
2019-04-05T08:01:09.583Z,6.40
2019-04-05T08:03:37.914Z,7.40
2019-04-05T08:06:06.188Z,8.37
2019-04-05T08:08:43.609Z,8.30
2019-04-05T08:11:11.907Z,7.10
2019-04-05T08:13:40.806Z,6.37
2019-04-05T08:16:09.097Z,8.70
2019-04-05T08:18:37.362Z,6.47
2019-04-05T08:21:05.623Z,6.30
2019-04-05T08:23:33.981Z,6.73
2019-04-05T08:26:02.321Z,5.33
2019-04-05T08:28:30.668Z,6.03
2019-04-05T08:30:58.998Z,6.50
2019-04-05T08:33:33.065Z,8.27
2019-04-05T08:36:01.312Z,6.13
2019-04-05T08:38:29.598Z,6.47
2019-04-05T08:40:57.851Z,6.80
2019-04-05T08:43:26.195Z,7.03
2019-04-05T08:45:56.523Z,7.40
2019-04-05T08:48:25.002Z,7.43
2019-04-05T08:50:53.271Z,5.47
2019-04-05T08:53:21.626Z,5.67
2019-04-05T08:55:50.000Z,6.47
2019-04-05T08:58:18.363Z,6.13
2019-04-05T09:00:46.769Z,5.60
2019-04-05T09:03:15.052Z,6.03
2019-04-05T09:05:43.379Z,5.10
2019-04-05T09:08:11.698Z,5.93
2019-04-05T09:10:39.960Z,5.10
2019-04-05T09:13:08.447Z,5.80
2019-04-05T09:15:36.704Z,5.03
2019-04-05T09:18:04.973Z,5.07
2019-04-05T09:20:33.204Z,4.13
2019-04-05T09:23:01.563Z,4.10
2019-04-05T09:25:29.810Z,3.63
2019-04-05T09:27:58.101Z,3.47
2019-04-05T09:30:26.346Z,3.47
2019-04-05T09:32:54.695Z,3.47
2019-04-05T09:35:23.152Z,3.60
2019-04-05T09:37:51.435Z,4.93
2019-04-05T09:40:21.147Z,7.13
2019-04-05T09:42:49.632Z,3.50
2019-04-05T09:45:17.915Z,3.23
2019-04-05T09:47:46.158Z,3.07
2019-04-05T09:50:14.438Z,3.37
2019-04-05T09:52:42.714Z,3.00
2019-04-05T09:55:10.998Z,2.83
2019-04-05T09:57:39.244Z,2.47
2019-04-05T10:00:09.709Z,1.97
2019-04-05T10:02:46.236Z,2.17
2019-04-05T10:05:14.523Z,2.23
2019-04-05T10:07:54.100Z,2.70
2019-04-05T10:10:12.772Z,2.27
2019-04-05T10:12:41.015Z,2.30
2019-04-05T10:15:09.315Z,2.40
2019-04-05T10:17:37.584Z,2.53
2019-04-05T10:20:08.747Z,2.80
2019-04-05T10:22:37.001Z,2.00
2019-04-05T10:25:08.227Z,2.03
2019-04-05T10:27:36.499Z,2.23
2019-04-05T10:30:12.300Z,4.90
2019-04-05T10:32:40.566Z,2.00
2019-04-05T10:35:08.849Z,2.40
2019-04-05T10:37:37.860Z,2.20
2019-04-05T10:40:07.148Z,2.25
2019-04-05T10:42:36.438Z,2.67
2019-04-05T10:45:09.299Z,2.45
2019-04-05T10:47:37.542Z,2.40
2019-04-05T10:50:10.708Z,2.43
2019-04-05T10:52:38.967Z,2.27
2019-04-05T10:55:07.743Z,2.60
2019-04-05T10:57:36.029Z,2.60
2019-04-05T11:00:07.116Z,2.33
2019-04-05T11:02:35.359Z,2.17
2019-04-05T11:05:04.001Z,2.30
2019-04-05T11:07:34.923Z,4.17
2019-04-05T11:10:02.349Z,2.50
2019-04-05T11:12:30.598Z,2.50
2019-04-05T11:14:58.951Z,2.20
2019-04-05T11:17:27.227Z,2.40
2019-04-05T11:19:55.518Z,2.40
2019-04-05T11:22:23.810Z,2.30
2019-04-05T11:24:52.172Z,2.40
2019-04-05T11:27:20.691Z,1.98
2019-04-05T11:29:48.938Z,2.17
2019-04-05T11:32:17.225Z,2.20
2019-04-05T11:34:45.488Z,2.50
2019-04-05T11:37:13.770Z,3.90
2019-04-05T11:39:42.032Z,2.90
2019-04-05T11:42:10.427Z,2.43
2019-04-05T11:44:38.686Z,2.90
2019-04-05T11:47:06.962Z,3.00
2019-04-05T11:49:35.212Z,3.60
2019-04-05T11:52:03.512Z,3.10
2019-04-05T11:54:31.802Z,2.97
2019-04-05T11:57:00.088Z,2.97
2019-04-05T11:59:28.362Z,2.90
2019-04-05T12:01:58.391Z,3.37
2019-04-05T12:04:26.650Z,2.70
2019-04-05T12:06:54.993Z,2.70
2019-04-05T12:09:23.252Z,3.13
2019-04-05T12:11:51.534Z,2.67
2019-04-05T12:14:29.701Z,3.07
2019-04-05T12:16:49.777Z,3.10
2019-04-05T12:19:18.035Z,3.55
2019-04-05T12:21:46.456Z,4.13
2019-04-05T12:24:14.732Z,3.97
2019-04-05T12:26:43.074Z,3.10
2019-04-05T12:29:11.397Z,4.00
2019-04-05T12:31:39.686Z,3.50
2019-04-05T12:34:08.009Z,3.57
2019-04-05T12:36:36.285Z,2.97
2019-04-05T12:39:08.225Z,3.83
2019-04-05T12:41:40.400Z,3.60
2019-04-05T12:44:06.753Z,3.30
2019-04-05T12:46:35.118Z,2.97
2019-04-05T12:49:03.408Z,3.50
2019-04-05T12:51:31.684Z,4.00
2019-04-05T12:53:59.960Z,3.93
2019-04-05T12:56:28.246Z,3.50
2019-04-05T12:58:56.748Z,4.20
2019-04-05T13:01:25.119Z,3.70
2019-04-05T13:03:53.483Z,3.93
2019-04-05T13:06:22.714Z,3.47
2019-04-05T13:08:51.519Z,3.47
2019-04-05T13:11:19.928Z,3.67
2019-04-05T13:13:48.220Z,4.10
2019-04-05T13:16:16.480Z,3.70
2019-04-05T13:18:44.758Z,4.63
2019-04-05T13:21:15.685Z,3.73
2019-04-05T13:23:43.188Z,3.97
2019-04-05T13:26:12.411Z,3.83
2019-04-05T13:28:40.866Z,3.80
2019-04-05T13:31:09.238Z,3.60
2019-04-05T13:33:37.549Z,4.03
2019-04-05T13:36:08.318Z,3.70
2019-04-05T13:38:35.959Z,4.10
2019-04-05T13:41:04.269Z,3.53
2019-04-05T13:43:32.763Z,4.57
2019-04-05T13:46:06.935Z,4.30
2019-04-05T13:48:35.256Z,4.43
2019-04-05T13:51:03.516Z,5.00
2019-04-05T13:53:31.839Z,4.60
2019-04-05T13:56:00.217Z,4.83
2019-04-05T13:58:28.750Z,4.67
2019-04-05T14:00:57.026Z,4.10
2019-04-05T14:03:25.293Z,4.50
2019-04-05T14:05:55.258Z,5.00
2019-04-05T14:08:23.954Z,4.20
2019-04-05T14:10:52.207Z,4.27
2019-04-05T14:13:20.538Z,4.22
2019-04-05T14:15:48.812Z,4.53
2019-04-05T14:18:17.103Z,4.73
2019-04-05T14:20:45.436Z,5.10
2019-04-05T14:23:13.787Z,5.10
2019-04-05T14:25:42.115Z,5.10
2019-04-05T14:28:10.409Z,4.77
2019-04-05T14:30:38.692Z,5.60
2019-04-05T14:33:06.996Z,5.70
2019-04-05T14:35:35.269Z,5.00
2019-04-05T14:38:03.599Z,4.90
2019-04-05T14:40:33.141Z,4.97
2019-04-05T14:43:01.495Z,4.45
2019-04-05T14:45:29.782Z,4.33
2019-04-05T14:47:58.630Z,4.47
2019-04-05T14:50:28.216Z,4.72
2019-04-05T14:53:00.786Z,5.17
2019-04-05T14:55:27.629Z,5.27
2019-04-05T14:57:57.324Z,4.77
2019-04-05T15:00:25.628Z,5.80
2019-04-05T15:02:53.892Z,5.67
2019-04-05T15:05:22.223Z,4.87
2019-04-05T15:07:51.168Z,5.27
2019-04-05T15:10:20.109Z,4.90
2019-04-05T15:12:48.398Z,5.23
2019-04-05T15:15:16.698Z,5.70
2019-04-05T15:17:48.173Z,5.87
2019-04-05T15:20:15.327Z,5.47
2019-04-05T15:22:43.597Z,5.70
2019-04-05T15:25:11.981Z,5.30
2019-04-05T15:27:40.388Z,5.63
2019-04-05T15:30:08.715Z,6.07
2019-04-05T15:32:37.848Z,5.37
2019-04-05T15:35:07.851Z,6.05
2019-04-05T15:37:37.729Z,5.42
2019-04-05T15:40:07.646Z,5.50
2019-04-05T15:42:35.997Z,5.40
2019-04-05T15:45:06.722Z,5.20
2019-04-05T15:47:35.020Z,5.40
2019-04-05T15:50:03.547Z,5.73
2019-04-05T15:52:32.187Z,5.83
2019-04-05T15:55:01.751Z,5.73
2019-04-05T15:57:33.459Z,6.27
2019-04-05T16:00:03.683Z,6.10
2019-04-05T16:02:33.009Z,6.07
2019-04-05T16:05:00.548Z,6.27
2019-04-05T16:07:28.823Z,6.03
2019-04-05T16:09:57.669Z,6.17
2019-04-05T16:12:26.081Z,6.30
2019-04-05T16:14:54.371Z,5.77
2019-04-05T16:17:22.806Z,5.83
2019-04-05T16:19:51.103Z,6.17
2019-04-05T16:22:30.785Z,6.30
2019-04-05T16:24:49.398Z,6.30
2019-04-05T16:27:17.687Z,6.17
2019-04-05T16:29:45.951Z,5.70
2019-04-05T16:32:14.937Z,6.60
2019-04-05T16:34:43.190Z,6.10
2019-04-05T16:37:11.481Z,6.27
2019-04-05T16:39:39.746Z,6.70
2019-04-05T16:42:10.178Z,7.00
2019-04-05T16:44:38.019Z,6.67
2019-04-05T16:47:06.386Z,6.77
2019-04-05T16:49:34.715Z,6.73
2019-04-05T16:52:03.008Z,7.33
2019-04-05T16:54:31.270Z,6.70
2019-04-05T16:56:59.550Z,6.73
2019-04-05T16:59:27.871Z,6.23
2019-04-05T17:01:56.869Z,10.63
2019-04-05T17:04:25.237Z,7.78
2019-04-05T17:06:53.497Z,6.73
2019-04-05T17:09:21.761Z,7.40
2019-04-05T17:11:50.027Z,7.43
2019-04-05T17:14:19.246Z,7.33
2019-04-05T17:16:47.531Z,7.87
2019-04-05T17:19:15.799Z,8.80
2019-04-05T17:21:44.060Z,8.30
2019-04-05T17:24:12.349Z,6.97
2019-04-05T17:26:40.620Z,6.97
2019-04-05T17:29:09.464Z,7.07
2019-04-05T17:31:37.722Z,6.35
2019-04-05T17:34:05.992Z,6.27
2019-04-05T17:36:34.249Z,6.20
2019-04-05T17:39:02.535Z,6.30
2019-04-05T17:41:30.864Z,6.07
2019-04-05T17:43:59.265Z,5.83
2019-04-05T17:46:27.509Z,5.90
2019-04-05T17:48:55.788Z,5.83
2019-04-05T17:51:24.028Z,6.00
2019-04-05T17:53:52.417Z,5.73
2019-04-05T17:56:20.672Z,5.70
2019-04-05T17:58:49.610Z,6.17
2019-04-05T18:01:17.899Z,5.90
2019-04-05T18:03:46.193Z,6.97
2019-04-05T18:06:14.475Z,6.23
2019-04-05T18:08:48.577Z,6.00
2019-04-05T18:11:16.827Z,9.77
2019-04-05T18:13:45.098Z,6.13
2019-04-05T18:16:13.379Z,6.30
2019-04-05T18:18:41.743Z,6.00
2019-04-05T18:21:09.991Z,5.90
2019-04-05T18:23:38.308Z,6.83
2019-04-05T18:26:06.578Z,6.50
2019-04-05T18:28:35.988Z,6.90
2019-04-05T18:31:05.871Z,7.03
2019-04-05T18:33:34.101Z,7.73
2019-04-05T18:36:02.349Z,9.07
2019-04-05T18:38:30.606Z,8.37
2019-04-05T18:40:58.983Z,14.87
2019-04-05T18:43:27.233Z,9.37
2019-04-05T18:45:55.578Z,10.10
2019-04-05T18:48:24.409Z,9.40
2019-04-05T18:50:52.701Z,8.53
2019-04-05T18:53:21.032Z,10.40
2019-04-05T18:55:49.333Z,7.57
2019-04-05T18:58:17.601Z,36.83
2019-04-05T19:00:45.939Z,8.53
2019-04-05T19:03:14.188Z,10.27
2019-04-05T19:05:42.503Z,11.70
2019-04-05T19:08:10.840Z,11.23
2019-04-05T19:10:39.137Z,8.20
2019-04-05T19:13:07.402Z,7.53
2019-04-05T19:15:35.672Z,7.93
2019-04-05T19:18:03.926Z,7.40
2019-04-05T19:20:32.200Z,7.37
2019-04-05T19:23:00.455Z,7.83
2019-04-05T19:25:28.766Z,9.27
2019-04-05T19:27:57.026Z,8.07
2019-04-05T19:50:25.352Z,8.80
2019-04-05T19:52:53.607Z,8.07
2019-04-05T19:55:21.960Z,11.33
2019-04-05T19:57:50.220Z,11.73
2019-04-05T20:00:19.176Z,8.77
2019-04-05T20:02:47.450Z,8.30
2019-04-05T20:05:15.730Z,9.43
2019-04-05T20:07:43.992Z,8.70
2019-04-05T20:10:12.267Z,9.27
2019-04-05T20:12:40.526Z,9.30
2019-04-05T20:15:08.808Z,10.57
2019-04-05T20:17:37.060Z,9.73
2019-04-05T20:20:08.356Z,10.27
2019-04-05T20:22:36.645Z,10.40
2019-04-05T20:25:07.887Z,10.57
2019-04-05T20:27:36.174Z,9.43
2019-04-05T20:30:06.634Z,9.17
2019-04-05T20:32:34.974Z,9.43
2019-04-05T20:35:03.245Z,8.60
2019-04-05T20:37:31.519Z,8.30
2019-04-05T20:39:59.844Z,8.33
2019-04-05T20:42:28.202Z,8.43
2019-04-05T20:44:56.451Z,8.43
2019-04-05T20:47:24.725Z,9.63
2019-04-05T20:50:01.910Z,8.57
2019-04-05T20:52:30.164Z,8.17
2019-04-05T20:54:58.425Z,8.83
2019-04-05T20:57:26.731Z,7.80
2019-04-05T20:59:55.060Z,8.17
2019-04-05T21:02:23.414Z,8.13
2019-04-05T21:04:51.669Z,7.93
2019-04-05T21:07:19.938Z,8.43
2019-04-05T21:09:48.589Z,8.50
2019-04-05T21:12:16.886Z,8.40
2019-04-05T21:14:45.151Z,8.70
2019-04-05T21:17:13.421Z,9.03
2019-04-05T21:19:41.673Z,8.17
2019-04-05T21:22:10.031Z,8.43
2019-04-05T21:24:38.285Z,8.73
2019-04-05T21:27:06.558Z,9.27
2019-04-05T21:29:34.812Z,9.10
2019-04-05T21:32:03.167Z,9.47
2019-04-05T21:34:31.494Z,9.20
2019-04-05T21:36:59.778Z,9.07
2019-04-05T21:39:28.864Z,9.73
2019-04-05T21:41:57.129Z,8.60
2019-04-05T21:44:25.393Z,9.67
2019-04-05T21:46:53.668Z,9.33
2019-04-05T21:49:21.932Z,9.50
2019-04-05T21:51:50.212Z,10.30
2019-04-05T21:54:18.461Z,9.43
2019-04-05T21:56:46.721Z,8.67
2019-04-05T21:59:15.013Z,9.37
2019-04-05T22:01:43.266Z,9.13
2019-04-05T22:04:11.550Z,9.50
2019-04-05T22:06:39.812Z,8.90
2019-04-05T22:09:12.317Z,9.10
2019-04-05T22:11:40.584Z,8.30
2019-04-05T22:14:08.858Z,8.53
2019-04-05T22:16:37.110Z,8.60
2019-04-05T22:19:05.449Z,8.67
2019-04-05T22:21:33.713Z,8.87
2019-04-05T22:24:01.986Z,8.87
2019-04-05T22:26:30.384Z,8.17
2019-04-05T22:28:58.657Z,9.13
2019-04-05T22:31:26.911Z,8.40
2019-04-05T22:33:55.227Z,9.03
2019-04-05T22:36:23.488Z,10.00
2019-04-05T22:38:51.759Z,9.17
2019-04-05T22:41:20.009Z,9.27
2019-04-05T22:43:48.297Z,9.53
2019-04-05T22:46:16.555Z,8.77
2019-04-05T22:48:44.836Z,7.97
2019-04-05T22:51:13.093Z,8.87
2019-04-05T22:53:41.370Z,8.90
2019-04-05T22:56:10.556Z,9.20
2019-04-05T22:58:38.837Z,9.35
2019-04-05T23:01:07.103Z,9.60
2019-04-05T23:03:35.385Z,9.33
2019-04-05T23:06:03.662Z,9.03
2019-04-05T23:08:31.949Z,9.70
2019-04-05T23:11:00.203Z,8.23
2019-04-05T23:13:28.486Z,8.30
2019-04-05T23:15:56.745Z,9.03
2019-04-05T23:18:25.032Z,9.13
2019-04-05T23:20:53.276Z,9.33
2019-04-05T23:23:21.553Z,8.93
2019-04-05T23:25:49.873Z,9.50
2019-04-05T23:28:18.149Z,9.33
2019-04-05T23:30:46.417Z,9.00
2019-04-05T23:33:14.689Z,9.17
2019-04-05T23:35:42.935Z,9.60
2019-04-05T23:38:11.219Z,8.63
2019-04-05T23:40:39.486Z,10.00
2019-04-05T23:43:07.761Z,8.83
2019-04-05T23:45:36.030Z,9.00
2019-04-05T23:48:04.278Z,9.10
2019-04-05T23:50:32.572Z,8.70
2019-04-05T23:53:00.827Z,9.33
2019-04-05T23:55:33.449Z,9.80
2019-04-05T23:57:59.730Z,9.00
